This is the latest recevied weather packets stored in our database for station/object HS1AXC-1. If no packets are shown the sender has not sent any weather packets the latest 10 day(s).
| Time | Temp. | Humidity | Pressure | Rain* | Wind** | Luminosity | Snow |
|---|---|---|---|---|---|---|---|
| 1777307698 | 33.89° C | 77% | 1009 hPa | - | - | 0 W/m² | - |
| 1777307076 | 34.44° C | 73% | 1009 hPa | - | - | 0 W/m² | - |
| 1777306454 | 34.44° C | 73% | 1009 hPa | - | - | 0 W/m² | - |
| 1777305832 | 33.89° C | 77% | 1009 hPa | - | - | 0 W/m² | - |
| 1777305210 | 33.89° C | 78% | 1009 hPa | - | - | 0 W/m² | - |
| 1777304588 | 33.89° C | 77% | 1009 hPa | - | - | 0 W/m² | - |
| 1777303966 | 34.44° C | 74% | 1009 hPa | - | - | 0 W/m² | - |
| 1777303344 | 33.89° C | 79% | 1009 hPa | - | - | 0 W/m² | - |
| 1777302722 | 33.89° C | 77% | 1009 hPa | - | - | 0 W/m² | - |
| 1777302100 | 33.89° C | 76% | 1008 hPa | - | - | 0 W/m² | - |
| 1777301478 | 35° C | 71% | 1008 hPa | - | - | 0 W/m² | - |
| 1777300856 | 34.44° C | 72% | 1009 hPa | - | - | 0 W/m² | - |
| 1777300234 | 33.89° C | 73% | 1009 hPa | - | - | 0 W/m² | - |
| 1777299612 | 34.44° C | 71% | 1008 hPa | - | - | 0 W/m² | - |
| 1777298990 | 33.89° C | 73% | 1008 hPa | - | - | 0 W/m² | - |
| 1777298368 | 34.44° C | 69% | 1008 hPa | - | - | 0 W/m² | - |
| 1777297746 | 34.44° C | 68% | 1008 hPa | - | - | 0 W/m² | - |
| 1777297124 | 34.44° C | 68% | 1008 hPa | - | - | 0 W/m² | - |
| 1777296501 | 35° C | 66% | 1008 hPa | - | - | 0 W/m² | - |
| 1777295879 | 34.44° C | 66% | 1008 hPa | - | - | 0 W/m² | - |
| 1777295257 | 34.44° C | 67% | 1007 hPa | - | - | 0 W/m² | - |
| 1777294635 | 34.44° C | 67% | 1007 hPa | - | - | 0 W/m² | - |
| 1777294189 | 35° C | 64% | 1007 hPa | - | - | 0 W/m² | - |
| 1777293567 | 34.44° C | 65% | 1007 hPa | - | - | 0 W/m² | - |
| 1777292946 | 34.44° C | 65% | 1007 hPa | - | - | 0 W/m² | - |
* Rain since midnight (hover to see other rain measurements)
** Current wind speed in m/s (hover to see current wind gust speed)